Time;durP1;ratioP1;P1;durP2;ratioP2;P2;SDS_P1;SDS_P2;PMS_P1;PMS_P2;Temp;Humidity;BMP_temperature;BMP_pressure;BME280_temperature;BME280_humidity;BME280_pressure;Samples;Min_cycle;Max_cycle;Signal;HPM_P1;HPM_P2
2022/09/30 00:43:50;;;;;;;3.13;2.00;;;20.30;99.90;;;;;;5631334;23;20246;-96
2022/09/30 00:46:32;;;;;;;3.00;1.93;;;20.20;99.90;;;;;;4996169;28;20259;-96
2022/09/30 00:49:12;;;;;;;8.67;2.73;;;20.10;99.90;;;;;;4996247;28;20270;-96
2022/09/30 00:51:49;;;;;;;2.20;1.67;;;20.00;99.90;;;;;;4997684;28;20264;-96
2022/09/30 00:54:28;;;;;;;5.60;2.00;;;20.00;99.90;;;;;;5011379;23;20245;-96
2022/09/30 00:57:06;;;;;;;3.07;2.10;;;19.90;99.90;;;;;;4961568;28;20191;-96
2022/09/30 00:59:48;;;;;;;5.43;2.47;;;19.80;99.90;;;;;;4977691;23;20236;-96
2022/09/30 01:02:22;;;;;;;3.00;2.17;;;19.70;99.90;;;;;;4977300;28;20202;-96
2022/09/30 01:15:56;;;;;;;5.87;2.30;;;19.30;99.90;;;;;;4960746;28;20232;-87
2022/09/30 01:18:39;;;;;;;2.43;2.00;;;19.30;99.90;;;;;;4949660;28;20668;-88
2022/09/30 01:21:39;;;;;;;2.60;2.10;;;19.20;99.90;;;;;;4964454;28;20271;-91
2022/09/30 01:24:40;;;;;;;2.77;1.90;;;19.10;99.90;;;;;;4957784;28;20586;-92
2022/09/30 01:27:33;;;;;;;2.63;2.07;;;19.00;99.90;;;;;;4959511;29;20212;-93
2022/09/30 01:30:15;;;;;;;3.40;2.40;;;19.00;99.90;;;;;;4955929;28;20261;-91
2022/09/30 01:33:05;;;;;;;3.37;1.90;;;18.90;99.90;;;;;;4967416;28;20199;-90
2022/09/30 01:35:57;;;;;;;4.50;2.43;;;18.80;99.90;;;;;;4968948;28;20220;-91
2022/09/30 01:38:30;;;;;;;2.93;2.37;;;18.70;99.90;;;;;;4957279;28;20212;-93
2022/09/30 01:41:05;;;;;;;3.53;2.67;;;18.60;99.90;;;;;;4968217;28;20215;-94
2022/09/30 01:43:47;;;;;;;3.10;2.27;;;18.60;99.90;;;;;;4952081;28;20208;-92
2022/09/30 01:46:27;;;;;;;6.50;2.70;;;18.50;99.90;;;;;;4948608;28;20294;-92
2022/09/30 01:49:11;;;;;;;3.10;2.57;;;18.40;99.90;;;;;;4959801;28;20215;-92
2022/09/30 01:51:44;;;;;;;3.03;2.57;;;18.30;99.90;;;;;;4958326;28;20242;-92
2022/09/30 01:54:22;;;;;;;7.13;4.30;;;18.20;99.90;;;;;;4971718;28;20621;-91
2022/09/30 01:59:36;;;;;;;4.80;2.83;;;18.10;99.90;;;;;;4614705;26;10001863;-92
2022/09/30 02:02:14;;;;;;;4.60;4.00;;;18.00;99.90;;;;;;4957827;28;20295;-93
2022/09/30 02:04:51;;;;;;;6.13;3.50;;;17.90;99.90;;;;;;4951212;28;20209;-92
2022/09/30 02:07:27;;;;;;;7.27;5.23;;;17.90;99.90;;;;;;4959001;29;20218;-92
2022/09/30 02:10:03;;;;;;;3.77;3.40;;;17.80;99.90;;;;;;4956725;28;20219;-92
2022/09/30 02:12:38;;;;;;;3.93;2.80;;;17.70;99.90;;;;;;4955182;28;20207;-92
2022/09/30 02:15:13;;;;;;;4.00;2.80;;;17.60;99.90;;;;;;4953287;29;20226;-94
2022/09/30 02:17:48;;;;;;;4.10;3.47;;;17.50;99.90;;;;;;4958707;28;20238;-93
2022/09/30 02:20:25;;;;;;;4.77;3.50;;;17.30;99.90;;;;;;4952464;28;20214;-93
2022/09/30 02:23:03;;;;;;;4.97;3.37;;;17.20;99.90;;;;;;4949953;29;20230;-92
2022/09/30 02:25:38;;;;;;;4.60;2.87;;;17.20;99.90;;;;;;4955287;28;20207;-92
2022/09/30 02:28:12;;;;;;;4.17;3.07;;;17.10;99.90;;;;;;4947755;29;20620;-94
2022/09/30 02:30:49;;;;;;;5.60;2.77;;;17.10;99.90;;;;;;4950116;29;20252;-93
2022/09/30 02:33:24;;;;;;;3.60;2.67;;;17.00;99.90;;;;;;4956135;28;20208;-94
2022/09/30 02:36:05;;;;;;;4.30;2.57;;;16.90;99.90;;;;;;4956398;29;20215;-95
2022/09/30 02:38:43;;;;;;;6.27;2.77;;;16.80;99.90;;;;;;4959080;28;20219;-94
2022/09/30 02:41:17;;;;;;;4.70;2.63;;;16.70;99.90;;;;;;4957948;28;20212;-92
2022/09/30 02:43:49;;;;;;;4.77;2.60;;;16.70;99.90;;;;;;4952604;28;20565;-94
2022/09/30 02:46:27;;;;;;;5.43;3.37;;;16.50;99.90;;;;;;4955350;29;20220;-94
2022/09/30 02:49:04;;;;;;;4.20;3.40;;;16.50;99.90;;;;;;4960067;28;20294;-96
2022/09/30 02:51:44;;;;;;;4.33;3.17;;;16.40;99.90;;;;;;4957389;28;20242;-95
2022/09/30 02:54:22;;;;;;;4.43;3.50;;;16.30;99.90;;;;;;4956502;29;20229;-93
2022/09/30 02:56:58;;;;;;;4.87;3.40;;;16.20;99.90;;;;;;4955004;28;20226;-95
2022/09/30 02:59:30;;;;;;;4.07;2.90;;;16.20;99.90;;;;;;4949755;29;20216;-90
2022/09/30 03:02:01;;;;;;;4.03;3.10;;;16.10;99.90;;;;;;4952488;28;20555;-88
2022/09/30 03:04:35;;;;;;;4.27;2.70;;;16.00;99.90;;;;;;4957358;28;20215;-92
2022/09/30 03:07:08;;;;;;;3.93;3.00;;;16.00;99.90;;;;;;4956176;28;20202;-92
2022/09/30 03:09:40;;;;;;;3.57;3.03;;;16.00;99.90;;;;;;4953983;28;20208;-92
2022/09/30 03:12:22;;;;;;;5.87;3.33;;;15.90;99.90;;;;;;4954772;28;20322;-91
2022/09/30 03:15:28;;;;;;;8.40;5.73;;;15.90;99.90;;;;;;4953944;28;20220;-89
2022/09/30 03:18:22;;;;;;;3.93;3.30;;;15.80;99.90;;;;;;4944520;29;20212;-91
2022/09/30 03:21:06;;;;;;;5.03;3.70;;;15.80;99.90;;;;;;4953633;29;20561;-91
2022/09/30 03:24:05;;;;;;;7.33;3.60;;;15.80;99.90;;;;;;4955128;29;20629;-91
2022/09/30 03:26:47;;;;;;;5.67;4.30;;;15.80;99.90;;;;;;4924482;28;20207;-93
2022/09/30 03:29:25;;;;;;;8.17;3.70;;;15.70;99.90;;;;;;4947903;28;20220;-90
2022/09/30 03:32:07;;;;;;;4.77;3.60;;;15.70;99.90;;;;;;4954942;28;20282;-91
2022/09/30 03:34:47;;;;;;;4.10;3.27;;;15.60;99.90;;;;;;4955671;28;20215;-91
2022/09/30 03:37:25;;;;;;;5.53;3.37;;;15.60;99.90;;;;;;4948436;28;20210;-90
2022/09/30 03:40:02;;;;;;;4.70;3.40;;;15.50;99.90;;;;;;4953313;28;20209;-91
2022/09/30 03:42:39;;;;;;;3.80;3.10;;;15.50;99.90;;;;;;4943502;29;20207;-91
2022/09/30 03:45:14;;;;;;;5.20;2.93;;;15.40;99.90;;;;;;4953626;28;20677;-91
2022/09/30 03:47:49;;;;;;;4.23;3.03;;;15.40;99.90;;;;;;4949728;29;20241;-90
2022/09/30 03:50:23;;;;;;;3.23;2.90;;;15.40;99.90;;;;;;4958400;28;20221;-90
2022/09/30 03:52:54;;;;;;;4.73;3.40;;;15.40;99.90;;;;;;4955366;29;20286;-90
2022/09/30 03:55:26;;;;;;;4.40;3.10;;;15.40;99.90;;;;;;4949983;29;20673;-91
2022/09/30 03:57:59;;;;;;;7.10;3.73;;;15.30;99.90;;;;;;4954563;28;20215;-90
2022/09/30 04:00:31;;;;;;;7.13;3.60;;;15.30;99.90;;;;;;4945742;29;20204;-90
2022/09/30 04:03:01;;;;;;;5.83;3.30;;;15.30;99.90;;;;;;4954704;28;20211;-90
2022/09/30 04:05:32;;;;;;;3.10;2.80;;;15.20;99.90;;;;;;4954668;28;20219;-91
2022/09/30 04:08:03;;;;;;;6.10;3.40;;;15.20;99.90;;;;;;4954450;28;20220;-91
2022/09/30 04:10:34;;;;;;;3.67;2.80;;;15.20;99.90;;;;;;4956842;28;20218;-92
2022/09/30 04:13:06;;;;;;;3.70;3.13;;;15.10;99.90;;;;;;4953313;28;20726;-91
2022/09/30 04:15:37;;;;;;;3.53;3.00;;;15.10;99.90;;;;;;4954279;28;20220;-90
2022/09/30 04:18:08;;;;;;;4.53;2.90;;;15.10;99.90;;;;;;4955343;28;20310;-92
2022/09/30 04:20:39;;;;;;;4.43;3.60;;;15.00;99.90;;;;;;4955162;28;20196;-89
2022/09/30 04:23:10;;;;;;;7.23;3.80;;;15.00;99.90;;;;;;4954644;28;20208;-92
2022/09/30 04:25:41;;;;;;;4.43;3.40;;;15.00;99.90;;;;;;4955098;28;20569;-91
2022/09/30 04:28:13;;;;;;;5.70;4.47;;;14.90;99.90;;;;;;4955398;28;20243;-90
2022/09/30 04:30:44;;;;;;;6.63;5.03;;;14.90;99.90;;;;;;4956025;28;20306;-91
2022/09/30 04:33:15;;;;;;;5.87;4.27;;;14.80;99.90;;;;;;4955125;28;20260;-90
2022/09/30 04:35:46;;;;;;;4.23;3.50;;;14.80;99.90;;;;;;4955727;28;20296;-90
2022/09/30 04:38:17;;;;;;;7.37;3.80;;;14.80;99.90;;;;;;4951105;28;20670;-91
2022/09/30 04:40:49;;;;;;;4.43;3.20;;;14.70;99.90;;;;;;4945347;28;20204;-91
2022/09/30 04:43:22;;;;;;;5.67;3.57;;;14.70;99.90;;;;;;4942333;29;20212;-91
2022/09/30 04:45:54;;;;;;;4.40;3.20;;;14.70;99.90;;;;;;4953849;28;20208;-91
2022/09/30 04:48:26;;;;;;;3.87;3.30;;;14.70;99.90;;;;;;4954621;28;20216;-90
2022/09/30 04:50:58;;;;;;;4.93;2.90;;;14.70;99.90;;;;;;4954822;28;20230;-90
2022/09/30 04:53:30;;;;;;;4.90;3.37;;;14.70;99.90;;;;;;4954030;28;20695;-90
2022/09/30 04:56:01;;;;;;;4.03;3.30;;;14.60;99.90;;;;;;4954334;28;20791;-91
2022/09/30 04:58:35;;;;;;;4.13;3.53;;;14.60;99.90;;;;;;4953492;28;20243;-89
2022/09/30 05:01:07;;;;;;;4.27;3.03;;;14.50;99.90;;;;;;4953820;28;20215;-90
2022/09/30 05:03:39;;;;;;;4.77;3.07;;;14.60;99.90;;;;;;4953479;28;20218;-89
2022/09/30 05:06:10;;;;;;;2.80;2.27;;;14.60;99.90;;;;;;4955562;28;20214;-91
2022/09/30 05:08:41;;;;;;;2.80;2.27;;;14.50;99.90;;;;;;4956060;28;20211;-92
2022/09/30 05:11:19;;;;;;;4.37;2.63;;;14.60;99.90;;;;;;4955148;28;20219;-91
2022/09/30 05:13:54;;;;;;;3.83;2.60;;;14.50;99.90;;;;;;4962695;28;20222;-90
2022/09/30 05:16:26;;;;;;;3.97;2.70;;;14.50;99.90;;;;;;4962459;28;20674;-90
2022/09/30 05:18:57;;;;;;;5.83;2.40;;;14.50;99.90;;;;;;4958878;28;20211;-90
2022/09/30 05:21:28;;;;;;;4.17;2.20;;;14.50;99.90;;;;;;4954761;28;20214;-90
2022/09/30 05:23:58;;;;;;;3.23;2.30;;;14.40;99.90;;;;;;4954745;28;20222;-93
2022/09/30 05:26:29;;;;;;;6.60;2.60;;;14.40;99.90;;;;;;4955591;28;20211;-90
2022/09/30 05:29:02;;;;;;;3.80;2.33;;;14.30;99.90;;;;;;4943654;29;20215;-91
2022/09/30 05:31:32;;;;;;;3.63;2.30;;;14.30;99.90;;;;;;4955266;28;20222;-89
2022/09/30 05:34:03;;;;;;;3.30;2.30;;;14.30;99.90;;;;;;4954927;28;20210;-89
2022/09/30 05:36:34;;;;;;;3.23;2.20;;;14.20;99.90;;;;;;4953391;29;20211;-90
2022/09/30 05:39:05;;;;;;;5.37;2.30;;;14.10;99.90;;;;;;4955004;28;20212;-91
2022/09/30 05:41:35;;;;;;;2.87;2.40;;;14.10;99.90;;;;;;4956189;28;20214;-91
2022/09/30 05:44:09;;;;;;;3.27;2.53;;;14.00;99.90;;;;;;4960731;28;20578;-90
2022/09/30 05:46:40;;;;;;;4.30;2.40;;;14.00;99.90;;;;;;4948446;28;20214;-90
2022/09/30 05:49:11;;;;;;;4.10;2.10;;;13.90;99.90;;;;;;4954946;28;20230;-88
2022/09/30 05:51:42;;;;;;;3.70;2.10;;;13.90;99.90;;;;;;4954440;28;20204;-91
2022/09/30 05:54:13;;;;;;;2.77;2.27;;;13.90;99.90;;;;;;4956992;29;20211;-91
2022/09/30 05:56:44;;;;;;;3.77;2.33;;;13.80;99.90;;;;;;4943728;29;20232;-91
2022/09/30 05:59:17;;;;;;;4.23;2.27;;;13.80;99.90;;;;;;4954427;28;20223;-90
2022/09/30 06:01:48;;;;;;;3.23;1.90;;;13.70;99.90;;;;;;4948362;28;20215;-90
2022/09/30 06:04:20;;;;;;;3.70;2.33;;;13.70;99.90;;;;;;4969429;28;20211;-92
2022/09/30 06:06:51;;;;;;;5.30;3.23;;;13.60;99.90;;;;;;4958586;28;20576;-91
2022/09/30 06:09:22;;;;;;;6.20;3.23;;;13.60;99.90;;;;;;4958251;28;20550;-91
2022/09/30 06:11:59;;;;;;;4.73;2.40;;;13.60;99.90;;;;;;4958719;28;20573;-90
2022/09/30 06:14:32;;;;;;;2.43;2.13;;;13.50;99.90;;;;;;4968389;28;20302;-91
2022/09/30 06:17:03;;;;;;;3.67;2.50;;;13.50;99.90;;;;;;4962718;28;20208;-86
2022/09/30 06:19:33;;;;;;;3.13;2.17;;;13.50;99.90;;;;;;4964905;29;20222;-90
2022/09/30 06:22:05;;;;;;;2.80;2.37;;;13.50;99.90;;;;;;4957211;28;20653;-91
2022/09/30 06:24:36;;;;;;;5.33;2.87;;;13.40;99.90;;;;;;4957746;29;20661;-90
2022/09/30 06:27:06;;;;;;;4.27;2.63;;;13.40;99.90;;;;;;4959188;28;20523;-90
2022/09/30 06:29:39;;;;;;;3.87;2.03;;;13.40;99.90;;;;;;4958790;28;20222;-90
2022/09/30 06:32:09;;;;;;;4.03;2.17;;;13.40;99.90;;;;;;4958500;28;20211;-90
2022/09/30 06:34:40;;;;;;;3.87;2.30;;;13.30;99.90;;;;;;4961300;28;20252;-90
2022/09/30 06:37:12;;;;;;;4.60;2.30;;;13.30;99.90;;;;;;4967669;28;20196;-89
2022/09/30 06:39:43;;;;;;;3.13;2.20;;;13.30;99.90;;;;;;4968757;29;20218;-90
2022/09/30 06:42:14;;;;;;;3.90;1.87;;;13.30;99.90;;;;;;4969382;28;20204;-91
2022/09/30 06:44:47;;;;;;;4.37;2.20;;;13.30;99.90;;;;;;4962065;29;20211;-92
2022/09/30 06:47:22;;;;;;;4.13;2.20;;;13.30;99.90;;;;;;4957446;28;20215;-90
2022/09/30 06:49:57;;;;;;;3.83;2.20;;;13.30;99.90;;;;;;4959113;28;20208;-90
2022/09/30 06:52:29;;;;;;;3.47;2.67;;;13.30;99.90;;;;;;4954901;29;20254;-89
2022/09/30 06:55:00;;;;;;;2.87;2.07;;;13.30;99.90;;;;;;4959844;28;20219;-89
2022/09/30 06:57:31;;;;;;;4.87;2.20;;;13.20;99.90;;;;;;4964409;28;20219;-90
2022/09/30 07:00:06;;;;;;;3.80;2.10;;;13.20;99.90;;;;;;4956742;28;20208;-89
2022/09/30 07:02:37;;;;;;;4.47;2.20;;;13.20;99.90;;;;;;4956696;28;20204;-91
2022/09/30 07:05:08;;;;;;;2.87;2.10;;;13.20;99.90;;;;;;4956788;28;20237;-90
2022/09/30 07:07:39;;;;;;;3.20;1.90;;;13.20;99.90;;;;;;4955416;28;20661;-90
2022/09/30 07:10:11;;;;;;;2.03;1.80;;;13.20;99.90;;;;;;4954047;28;20226;-90
2022/09/30 07:12:41;;;;;;;5.43;2.73;;;13.20;99.90;;;;;;4953613;28;20216;-90
2022/09/30 07:15:14;;;;;;;6.43;2.57;;;13.20;99.90;;;;;;4954831;28;20212;-90
2022/09/30 07:17:51;;;;;;;5.53;2.67;;;13.20;99.90;;;;;;4955704;28;20239;-90
2022/09/30 07:20:21;;;;;;;3.10;2.17;;;13.20;99.90;;;;;;4955563;28;20214;-92
2022/09/30 07:22:52;;;;;;;4.03;1.93;;;13.20;99.90;;;;;;4955734;28;20222;-90
2022/09/30 07:25:23;;;;;;;3.80;1.93;;;13.20;99.90;;;;;;4956530;28;20218;-90
2022/09/30 07:27:55;;;;;;;5.80;2.13;;;13.20;99.90;;;;;;4951844;28;20640;-90
2022/09/30 07:30:27;;;;;;;4.10;2.17;;;13.20;99.90;;;;;;4954691;29;20222;-90
2022/09/30 07:32:58;;;;;;;5.43;2.00;;;13.20;99.90;;;;;;4964247;28;20215;-89
2022/09/30 07:35:29;;;;;;;5.53;1.90;;;13.20;99.90;;;;;;4957228;28;20211;-90
2022/09/30 07:38:00;;;;;;;4.50;1.90;;;13.10;99.90;;;;;;4945486;29;20212;-91
2022/09/30 07:40:31;;;;;;;3.70;2.00;;;13.10;99.90;;;;;;4956463;28;20207;-90
2022/09/30 07:43:02;;;;;;;2.63;1.60;;;13.00;99.90;;;;;;4955698;28;20208;-89
2022/09/30 07:45:36;;;;;;;5.07;1.77;;;13.00;99.90;;;;;;4953642;28;20212;-90
2022/09/30 07:48:37;;;;;;;4.03;1.80;;;13.00;99.90;;;;;;4956031;28;20207;-90
2022/09/30 07:50:58;;;;;;;4.47;2.00;;;12.90;99.90;;;;;;4955783;28;20228;-89
2022/09/30 07:53:29;;;;;;;3.40;1.90;;;12.90;99.90;;;;;;4954049;28;20712;-90
2022/09/30 07:56:04;;;;;;;6.43;2.30;;;12.90;99.90;;;;;;4951246;29;20215;-90
2022/09/30 07:58:35;;;;;;;5.50;2.20;;;12.80;99.90;;;;;;4952863;28;20326;-90
2022/09/30 08:01:09;;;;;;;4.63;2.27;;;12.80;99.90;;;;;;4950498;28;20219;-91
2022/09/30 08:03:43;;;;;;;4.60;2.47;;;12.80;99.90;;;;;;4936269;29;20204;-90
2022/09/30 08:06:15;;;;;;;6.63;2.43;;;12.80;99.90;;;;;;4956508;28;20206;-88
2022/09/30 08:08:46;;;;;;;5.53;2.33;;;12.80;99.90;;;;;;4955221;29;20204;-91
2022/09/30 08:11:17;;;;;;;3.87;2.30;;;12.70;99.90;;;;;;4954573;28;20226;-90
2022/09/30 08:13:52;;;;;;;3.93;2.20;;;12.70;99.90;;;;;;4954771;28;20600;-90
2022/09/30 08:16:26;;;;;;;3.77;2.37;;;12.70;99.90;;;;;;4939832;28;20212;-90
2022/09/30 08:18:58;;;;;;;3.80;2.40;;;12.70;99.90;;;;;;4937221;29;20220;-91
2022/09/30 08:21:30;;;;;;;6.77;2.23;;;12.60;99.90;;;;;;4955940;29;20200;-91
2022/09/30 08:24:03;;;;;;;3.20;2.17;;;12.70;99.90;;;;;;4955826;28;20262;-91
2022/09/30 08:26:35;;;;;;;3.73;2.33;;;12.70;99.90;;;;;;4955516;28;20222;-90
2022/09/30 08:29:06;;;;;;;3.50;2.00;;;12.70;99.90;;;;;;4956636;28;20204;-91
2022/09/30 08:31:38;;;;;;;5.50;2.10;;;12.70;99.90;;;;;;4946409;28;20207;-92
2022/09/30 08:34:09;;;;;;;6.03;2.27;;;12.80;99.90;;;;;;4955687;28;20338;-90
2022/09/30 08:36:40;;;;;;;4.73;2.30;;;12.80;99.90;;;;;;4955653;28;20215;-89
2022/09/30 08:39:11;;;;;;;3.33;2.10;;;12.70;99.90;;;;;;4956182;28;20203;-90
2022/09/30 08:42:04;;;;;;;5.40;2.30;;;12.70;99.90;;;;;;4940263;28;20291;-90
2022/09/30 08:44:55;;;;;;;3.50;2.33;;;12.70;99.90;;;;;;4936695;29;20212;-90
2022/09/30 08:47:45;;;;;;;2.70;2.10;;;12.60;99.90;;;;;;4953873;29;20218;-90
2022/09/30 08:50:23;;;;;;;5.67;2.43;;;12.60;99.90;;;;;;4937082;29;20219;-91
2022/09/30 08:53:00;;;;;;;4.93;2.27;;;12.60;99.90;;;;;;4935559;29;20212;-91
2022/09/30 08:55:39;;;;;;;5.93;2.47;;;12.60;99.90;;;;;;4936178;29;20276;-90
2022/09/30 08:58:20;;;;;;;5.33;2.60;;;12.50;99.90;;;;;;4939534;29;20217;-90
2022/09/30 09:00:53;;;;;;;4.30;2.30;;;12.50;99.90;;;;;;4955395;28;20676;-91
2022/09/30 09:03:30;;;;;;;5.60;2.30;;;12.40;99.90;;;;;;4955142;28;20215;-90
2022/09/30 09:06:16;;;;;;;5.40;2.40;;;12.40;99.90;;;;;;4936393;29;20577;-91
2022/09/30 09:09:03;;;;;;;5.53;2.63;;;12.40;99.90;;;;;;4943920;29;20207;-91
2022/09/30 09:11:47;;;;;;;10.10;2.63;;;12.30;99.90;;;;;;4954911;28;20223;-91
2022/09/30 09:14:30;;;;;;;4.57;2.50;;;12.30;99.90;;;;;;4935271;29;20236;-91
2022/09/30 09:17:12;;;;;;;4.63;2.77;;;12.30;99.90;;;;;;4936246;29;20223;-90
2022/09/30 09:19:52;;;;;;;4.03;2.53;;;12.30;99.90;;;;;;4951284;29;20719;-91
2022/09/30 09:22:24;;;;;;;3.90;2.37;;;12.30;99.90;;;;;;4954123;28;20218;-90
2022/09/30 09:24:55;;;;;;;5.17;2.80;;;12.40;99.90;;;;;;4954774;28;20207;-90
2022/09/30 09:27:35;;;;;;;7.87;3.13;;;12.30;99.90;;;;;;4956328;28;20671;-90
2022/09/30 09:30:08;;;;;;;4.63;2.90;;;12.40;99.90;;;;;;4959095;28;20211;-90
2022/09/30 09:32:40;;;;;;;4.60;2.70;;;12.40;99.90;;;;;;4958190;28;20671;-90
2022/09/30 09:35:18;;;;;;;6.00;2.77;;;12.40;99.90;;;;;;4959362;28;20242;-90
2022/09/30 09:40:57;;;;;;;5.20;2.97;;;12.40;99.90;;;;;;4958924;28;20303;-90
2022/09/30 09:43:42;;;;;;;4.70;2.80;;;12.50;99.90;;;;;;4972571;28;20214;-90
2022/09/30 09:46:22;;;;;;;6.37;2.93;;;12.50;99.90;;;;;;4978697;28;20665;-90
2022/09/30 09:49:28;;;;;;;7.70;3.57;;;12.50;99.90;;;;;;4960811;28;20222;-89
2022/09/30 09:52:31;;;;;;;5.50;3.43;;;12.50;99.90;;;;;;4958037;28;20222;-91
2022/09/30 09:55:02;;;;;;;7.00;3.43;;;12.60;99.90;;;;;;4957332;29;20920;-90
2022/09/30 09:57:33;;;;;;;4.83;3.30;;;12.70;99.90;;;;;;4958746;28;20270;-90
2022/09/30 10:03:02;;;;;;;5.23;3.27;;;12.80;99.90;;;;;;4955131;29;20218;-90
2022/09/30 10:05:38;;;;;;;5.47;3.53;;;12.80;99.90;;;;;;4956630;29;20242;-90
2022/09/30 10:08:18;;;;;;;9.77;3.70;;;12.80;99.90;;;;;;4959252;28;20203;-90
2022/09/30 10:10:52;;;;;;;5.63;3.70;;;12.90;99.90;;;;;;4959195;28;20214;-91
2022/09/30 10:13:24;;;;;;;7.37;3.73;;;12.90;99.90;;;;;;4958306;28;20204;-90
2022/09/30 10:15:58;;;;;;;9.50;4.23;;;12.90;99.90;;;;;;4958354;28;20235;-90
2022/09/30 10:18:30;;;;;;;6.03;3.70;;;12.90;99.90;;;;;;4958475;28;20608;-90
2022/09/30 10:21:03;;;;;;;7.83;4.17;;;12.90;99.90;;;;;;4958423;28;20207;-90
2022/09/30 10:23:39;;;;;;;5.40;4.20;;;12.90;99.90;;;;;;4957723;28;20204;-90
2022/09/30 10:26:20;;;;;;;5.00;3.87;;;12.90;99.90;;;;;;4958269;29;20204;-91
2022/09/30 10:28:52;;;;;;;7.73;4.40;;;12.90;99.90;;;;;;4958380;28;20611;-91
2022/09/30 10:31:27;;;;;;;7.00;3.77;;;13.00;99.90;;;;;;4959126;28;20290;-91
2022/09/30 10:34:03;;;;;;;10.40;4.17;;;13.10;99.90;;;;;;4957444;28;20294;-91
2022/09/30 10:36:36;;;;;;;6.10;4.30;;;13.10;99.90;;;;;;4957444;28;20261;-90
2022/09/30 10:39:19;;;;;;;7.07;4.00;;;13.10;99.90;;;;;;4958172;28;20212;-91
2022/09/30 10:41:50;;;;;;;8.27;3.60;;;13.10;99.90;;;;;;4957486;28;20199;-90
2022/09/30 10:44:24;;;;;;;6.93;4.30;;;13.20;99.90;;;;;;4956949;28;20215;-91
2022/09/30 10:47:03;;;;;;;7.07;3.90;;;13.10;99.90;;;;;;4938954;29;20212;-90
2022/09/30 10:49:37;;;;;;;10.30;4.20;;;13.10;99.90;;;;;;4938889;29;20212;-91
2022/09/30 10:52:17;;;;;;;7.87;3.87;;;13.10;99.90;;;;;;4937748;29;20552;-91
2022/09/30 10:54:52;;;;;;;7.80;4.30;;;13.10;99.90;;;;;;4938600;29;20242;-91
2022/09/30 10:57:25;;;;;;;10.50;4.07;;;13.20;99.90;;;;;;4938552;29;20211;-90
2022/09/30 11:00:01;;;;;;;8.10;3.83;;;13.20;99.90;;;;;;4937912;29;20263;-90
2022/09/30 11:02:39;;;;;;;8.60;3.90;;;13.20;99.90;;;;;;4945509;29;20712;-89
2022/09/30 11:05:18;;;;;;;9.03;4.10;;;13.20;99.90;;;;;;4957244;28;20688;-89
2022/09/30 11:07:53;;;;;;;5.77;3.87;;;13.20;99.90;;;;;;4955210;28;20211;-90
2022/09/30 11:10:36;;;;;;;11.73;4.07;;;13.20;99.90;;;;;;4938244;29;20212;-90
2022/09/30 11:13:17;;;;;;;9.03;4.03;;;13.20;99.90;;;;;;4949181;29;20224;-90
2022/09/30 11:15:59;;;;;;;8.17;3.80;;;13.20;99.90;;;;;;4957012;28;20238;-89
2022/09/30 11:18:36;;;;;;;9.33;3.37;;;13.20;99.90;;;;;;4951950;28;20281;-90
2022/09/30 11:21:13;;;;;;;7.80;3.90;;;13.20;99.90;;;;;;4958542;28;20225;-88
2022/09/30 11:23:47;;;;;;;6.90;3.70;;;13.20;99.90;;;;;;4956563;28;20204;-90
2022/09/30 11:26:28;;;;;;;8.23;3.83;;;13.20;99.90;;;;;;4960925;28;20215;-91
2022/09/30 11:29:15;;;;;;;6.83;3.50;;;13.20;99.90;;;;;;4976545;28;20726;-90
2022/09/30 11:31:56;;;;;;;7.37;3.77;;;13.20;99.90;;;;;;4975593;28;20211;-90
2022/09/30 11:34:42;;;;;;;9.23;3.93;;;13.20;99.90;;;;;;4976490;28;20203;-90
2022/09/30 11:37:26;;;;;;;7.00;3.83;;;13.30;99.90;;;;;;4955952;29;20216;-90
2022/09/30 11:40:16;;;;;;;7.03;3.77;;;13.30;99.90;;;;;;4957234;28;20932;-90
2022/09/30 11:42:55;;;;;;;7.13;3.43;;;13.30;99.90;;;;;;4957118;28;20208;-90
2022/09/30 11:45:35;;;;;;;6.23;3.30;;;13.30;99.90;;;;;;4958849;28;20204;-90
2022/09/30 11:48:24;;;;;;;9.10;3.63;;;13.30;99.90;;;;;;4956966;28;20230;-89
2022/09/30 11:51:11;;;;;;;3.97;3.40;;;13.40;99.90;;;;;;4955303;28;20629;-89
2022/09/30 11:53:52;;;;;;;8.93;3.33;;;13.40;99.90;;;;;;4936841;29;20220;-90
2022/09/30 11:56:34;;;;;;;7.83;3.60;;;13.40;99.90;;;;;;4938796;29;20236;-89
2022/09/30 11:59:15;;;;;;;9.23;3.47;;;13.40;99.90;;;;;;4937449;29;20220;-89
2022/09/30 12:01:50;;;;;;;6.17;3.60;;;13.40;99.90;;;;;;4948780;29;20211;-89
2022/09/30 12:04:28;;;;;;;8.00;3.40;;;13.30;99.90;;;;;;4960116;28;20199;-89
2022/09/30 12:07:02;;;;;;;7.83;3.60;;;13.30;99.90;;;;;;4959357;28;20229;-89
2022/09/30 12:09:40;;;;;;;5.80;3.17;;;13.30;99.90;;;;;;4963184;28;20279;-90
2022/09/30 12:12:13;;;;;;;5.57;3.20;;;13.40;99.90;;;;;;4972388;28;20208;-90
2022/09/30 12:14:52;;;;;;;6.23;3.63;;;13.30;99.90;;;;;;4973987;28;20210;-89
2022/09/30 12:17:28;;;;;;;8.13;3.20;;;13.40;99.90;;;;;;4966774;28;20223;-91
2022/09/30 12:20:03;;;;;;;6.77;3.10;;;13.40;99.90;;;;;;4956970;28;20207;-89
2022/09/30 12:22:40;;;;;;;4.73;3.10;;;13.40;99.90;;;;;;4956298;28;20218;-89
2022/09/30 12:25:16;;;;;;;7.20;3.20;;;13.40;99.90;;;;;;4956584;28;20215;-89
2022/09/30 12:27:51;;;;;;;7.70;3.40;;;13.40;99.90;;;;;;4955977;28;20218;-90
2022/09/30 12:30:24;;;;;;;8.30;3.23;;;13.40;99.90;;;;;;4955725;28;20203;-90
2022/09/30 12:33:28;;;;;;;6.03;3.10;;;13.40;99.90;;;;;;4954886;29;20208;-90
2022/09/30 12:36:23;;;;;;;3.53;2.70;;;13.40;99.90;;;;;;4956040;28;20243;-90
2022/09/30 12:39:18;;;;;;;6.03;3.00;;;13.40;99.90;;;;;;4955167;28;20223;-90
2022/09/30 12:42:02;;;;;;;5.13;2.90;;;13.40;99.90;;;;;;4928516;29;20211;-90
2022/09/30 12:45:13;;;;;;;4.77;3.13;;;13.40;99.90;;;;;;4942305;29;20196;-90
2022/09/30 12:47:51;;;;;;;4.23;2.97;;;13.40;99.90;;;;;;4953853;29;20211;-90
2022/09/30 12:50:27;;;;;;;5.87;2.50;;;13.40;99.90;;;;;;4955761;28;20218;-91
2022/09/30 12:53:00;;;;;;;4.27;2.50;;;13.40;99.90;;;;;;4954532;28;20207;-90
2022/09/30 12:55:39;;;;;;;4.33;2.67;;;13.40;99.90;;;;;;4956045;28;20211;-90
2022/09/30 12:58:20;;;;;;;3.10;2.57;;;13.40;99.90;;;;;;4956859;28;20222;-90
2022/09/30 13:01:06;;;;;;;4.13;2.40;;;13.40;99.90;;;;;;4949037;28;20250;-89
2022/09/30 13:04:16;;;;;;;5.13;3.13;;;13.40;99.90;;;;;;4954783;28;20731;-90
2022/09/30 13:07:08;;;;;;;6.13;2.60;;;13.40;99.90;;;;;;4946529;29;20584;-89
2022/09/30 13:09:58;;;;;;;4.30;2.50;;;13.40;99.90;;;;;;4936741;29;20220;-89
2022/09/30 13:12:41;;;;;;;5.10;2.50;;;13.50;99.90;;;;;;4605598;28;9999676;-89
2022/09/30 13:15:42;;;;;;;4.73;2.73;;;13.50;99.90;;;;;;4957426;28;20211;-89
2022/09/30 13:18:49;;;;;;;6.47;2.73;;;13.50;99.90;;;;;;4956193;28;20215;-90
2022/09/30 13:21:25;;;;;;;4.00;2.33;;;13.40;99.90;;;;;;4956199;28;20239;-90
2022/09/30 13:23:57;;;;;;;6.03;3.10;;;13.40;99.90;;;;;;4956100;28;20227;-90
2022/09/30 13:26:35;;;;;;;6.10;3.10;;;13.50;99.90;;;;;;4954640;28;20204;-91
2022/09/30 13:29:29;;;;;;;4.07;2.50;;;13.40;99.90;;;;;;4956178;28;20219;-90
2022/09/30 13:32:10;;;;;;;6.07;2.47;;;13.50;99.90;;;;;;4955728;28;20699;-90
2022/09/30 13:34:57;;;;;;;5.93;2.60;;;13.40;99.90;;;;;;4957340;28;20683;-90
2022/09/30 13:37:40;;;;;;;4.87;2.63;;;13.40;99.90;;;;;;4953799;29;20719;-90
2022/09/30 13:40:29;;;;;;;3.80;2.70;;;13.50;99.90;;;;;;4954000;29;20207;-91
2022/09/30 13:43:25;;;;;;;8.27;3.07;;;13.50;99.90;;;;;;4952049;28;20212;-90
2022/09/30 13:45:57;;;;;;;4.27;2.63;;;13.50;99.90;;;;;;4954114;28;20727;-90
2022/09/30 13:48:33;;;;;;;7.40;3.00;;;13.50;99.90;;;;;;4958784;28;20259;-89
2022/09/30 13:51:09;;;;;;;5.30;2.50;;;13.50;99.90;;;;;;4970869;28;20571;-90
2022/09/30 13:53:46;;;;;;;5.50;2.70;;;13.50;99.90;;;;;;4943229;29;20208;-91
2022/09/30 13:56:21;;;;;;;5.13;2.87;;;13.50;99.90;;;;;;4954198;28;20720;-90
2022/09/30 13:59:30;;;;;;;6.17;3.30;;;13.50;99.90;;;;;;4946079;28;20219;-91
2022/09/30 14:02:32;;;;;;;4.73;2.60;;;13.50;99.90;;;;;;4944400;28;20199;-91
2022/09/30 14:05:35;;;;;;;4.87;3.13;;;13.50;99.90;;;;;;4949258;29;20208;-91
2022/09/30 14:08:40;;;;;;;3.67;2.80;;;13.50;99.90;;;;;;4898089;29;20208;-89
2022/09/30 14:11:34;;;;;;;5.10;3.43;;;13.50;99.90;;;;;;4912096;29;20208;-90
2022/09/30 14:14:46;;;;;;;5.57;3.50;;;13.50;99.90;;;;;;4938071;29;20226;-91
2022/09/30 14:17:37;;;;;;;7.33;3.00;;;13.50;99.90;;;;;;4927712;29;20238;-90
2022/09/30 14:20:23;;;;;;;5.63;3.47;;;13.50;99.90;;;;;;4956742;28;20208;-90
2022/09/30 14:22:54;;;;;;;5.07;3.20;;;13.50;99.90;;;;;;4957408;28;20215;-90
2022/09/30 14:25:25;;;;;;;6.27;3.63;;;13.50;99.90;;;;;;4939953;29;20212;-89
2022/09/30 14:28:05;;;;;;;5.67;3.70;;;13.50;99.90;;;;;;4942969;28;20222;-89
2022/09/30 14:30:41;;;;;;;8.50;4.07;;;13.50;99.90;;;;;;4944044;29;20311;-91
2022/09/30 14:33:24;;;;;;;7.73;3.67;;;13.50;99.90;;;;;;4957297;28;20215;-90
2022/09/30 14:35:56;;;;;;;8.77;3.70;;;13.50;99.90;;;;;;4958132;28;20627;-90
2022/09/30 14:38:29;;;;;;;5.27;3.13;;;13.50;99.90;;;;;;4957745;28;20235;-89
2022/09/30 14:41:05;;;;;;;3.60;2.70;;;13.60;99.90;;;;;;4958281;28;20207;-90